sensor_id;sensor_type;location;lat;lon;timestamp;temperature;humidity
14057;DHT22;7103;54.300;10.180;2024-02-23T00:00:36;11.00;99.90
14057;DHT22;7103;54.300;10.180;2024-02-23T00:03:03;11.10;99.90
14057;DHT22;7103;54.300;10.180;2024-02-23T00:05:30;10.90;99.90
14057;DHT22;7103;54.300;10.180;2024-02-23T00:07:57;10.90;99.90
14057;DHT22;7103;54.300;10.180;2024-02-23T00:10:24;10.80;99.90
14057;DHT22;7103;54.300;10.180;2024-02-23T00:12:52;10.50;42.20
14057;DHT22;7103;54.300;10.180;2024-02-23T00:15:19;10.30;13.80
14057;DHT22;7103;54.300;10.180;2024-02-23T00:17:46;10.10;1.00
14057;DHT22;7103;54.300;10.180;2024-02-23T00:20:13;10.00;1.00
14057;DHT22;7103;54.300;10.180;2024-02-23T00:22:42;10.10;1.00
14057;DHT22;7103;54.300;10.180;2024-02-23T00:25:08;10.10;1.00
14057;DHT22;7103;54.300;10.180;2024-02-23T00:27:35;10.00;1.00
14057;DHT22;7103;54.300;10.180;2024-02-23T00:30:03;10.00;1.00
14057;DHT22;7103;54.300;10.180;2024-02-23T00:32:30;9.90;1.00
14057;DHT22;7103;54.300;10.180;2024-02-23T00:34:57;9.90;1.00
14057;DHT22;7103;54.300;10.180;2024-02-23T00:37:24;9.80;1.00
14057;DHT22;7103;54.300;10.180;2024-02-23T00:39:51;9.80;1.00
14057;DHT22;7103;54.300;10.180;2024-02-23T00:42:18;9.70;1.00
14057;DHT22;7103;54.300;10.180;2024-02-23T00:44:47;9.70;1.00
14057;DHT22;7103;54.300;10.180;2024-02-23T00:47:14;9.60;1.00
14057;DHT22;7103;54.300;10.180;2024-02-23T00:49:40;9.70;1.00
14057;DHT22;7103;54.300;10.180;2024-02-23T00:52:07;9.60;1.00
14057;DHT22;7103;54.300;10.180;2024-02-23T00:54:34;9.50;1.00
14057;DHT22;7103;54.300;10.180;2024-02-23T00:57:01;9.50;1.00
14057;DHT22;7103;54.300;10.180;2024-02-23T00:59:28;9.40;1.00
14057;DHT22;7103;54.300;10.180;2024-02-23T01:01:55;9.20;1.00
14057;DHT22;7103;54.300;10.180;2024-02-23T01:04:22;9.10;1.00
14057;DHT22;7103;54.300;10.180;2024-02-23T01:06:49;8.70;1.00
14057;DHT22;7103;54.300;10.180;2024-02-23T01:09:16;8.40;1.00
14057;DHT22;7103;54.300;10.180;2024-02-23T01:11:47;8.30;1.00
14057;DHT22;7103;54.300;10.180;2024-02-23T01:14:15;8.30;1.00
14057;DHT22;7103;54.300;10.180;2024-02-23T01:16:42;8.20;1.00
14057;DHT22;7103;54.300;10.180;2024-02-23T01:19:09;8.20;1.00
14057;DHT22;7103;54.300;10.180;2024-02-23T01:21:36;8.10;1.00
14057;DHT22;7103;54.300;10.180;2024-02-23T01:24:03;8.20;1.00
14057;DHT22;7103;54.300;10.180;2024-02-23T01:26:31;8.10;1.00
14057;DHT22;7103;54.300;10.180;2024-02-23T01:28:57;8.10;1.00
14057;DHT22;7103;54.300;10.180;2024-02-23T01:31:25;8.20;1.00
14057;DHT22;7103;54.300;10.180;2024-02-23T01:33:51;8.00;1.00
14057;DHT22;7103;54.300;10.180;2024-02-23T01:36:18;8.00;1.00
14057;DHT22;7103;54.300;10.180;2024-02-23T01:38:46;7.90;1.00
14057;DHT22;7103;54.300;10.180;2024-02-23T01:41:13;7.80;1.00
14057;DHT22;7103;54.300;10.180;2024-02-23T01:43:40;7.80;1.00
14057;DHT22;7103;54.300;10.180;2024-02-23T01:46:07;7.70;1.00
14057;DHT22;7103;54.300;10.180;2024-02-23T01:48:34;7.60;1.00
14057;DHT22;7103;54.300;10.180;2024-02-23T01:51:02;7.60;1.00
14057;DHT22;7103;54.300;10.180;2024-02-23T01:53:29;7.50;1.00
14057;DHT22;7103;54.300;10.180;2024-02-23T01:55:57;7.50;1.00
14057;DHT22;7103;54.300;10.180;2024-02-23T01:58:27;7.50;1.00
14057;DHT22;7103;54.300;10.180;2024-02-23T02:00:54;7.50;1.00
14057;DHT22;7103;54.300;10.180;2024-02-23T02:03:21;7.60;1.00
14057;DHT22;7103;54.300;10.180;2024-02-23T02:05:48;7.50;1.00
14057;DHT22;7103;54.300;10.180;2024-02-23T02:08:17;7.30;1.00
14057;DHT22;7103;54.300;10.180;2024-02-23T02:10:44;7.40;1.00
14057;DHT22;7103;54.300;10.180;2024-02-23T02:13:12;7.20;1.00
14057;DHT22;7103;54.300;10.180;2024-02-23T02:15:39;7.30;1.00
14057;DHT22;7103;54.300;10.180;2024-02-23T02:18:06;7.30;1.00
14057;DHT22;7103;54.300;10.180;2024-02-23T02:20:33;7.20;1.00
14057;DHT22;7103;54.300;10.180;2024-02-23T02:23:03;7.10;1.00
14057;DHT22;7103;54.300;10.180;2024-02-23T02:25:30;7.10;1.00
14057;DHT22;7103;54.300;10.180;2024-02-23T02:27:57;7.10;1.00
14057;DHT22;7103;54.300;10.180;2024-02-23T02:30:24;7.20;1.00
14057;DHT22;7103;54.300;10.180;2024-02-23T02:32:50;7.00;1.00
14057;DHT22;7103;54.300;10.180;2024-02-23T02:35:17;7.00;1.00
14057;DHT22;7103;54.300;10.180;2024-02-23T02:37:44;7.00;1.00
14057;DHT22;7103;54.300;10.180;2024-02-23T02:40:11;7.10;1.00
14057;DHT22;7103;54.300;10.180;2024-02-23T02:42:38;6.90;1.00
14057;DHT22;7103;54.300;10.180;2024-02-23T02:45:05;6.80;1.00
14057;DHT22;7103;54.300;10.180;2024-02-23T02:47:32;6.80;1.00
14057;DHT22;7103;54.300;10.180;2024-02-23T02:49:59;6.70;1.00
14057;DHT22;7103;54.300;10.180;2024-02-23T02:52:26;6.70;1.00
14057;DHT22;7103;54.300;10.180;2024-02-23T02:54:55;6.70;1.00
14057;DHT22;7103;54.300;10.180;2024-02-23T02:57:21;6.70;1.00
14057;DHT22;7103;54.300;10.180;2024-02-23T02:59:48;6.60;1.00
14057;DHT22;7103;54.300;10.180;2024-02-23T03:02:17;6.70;1.00
14057;DHT22;7103;54.300;10.180;2024-02-23T03:04:48;6.50;1.00
14057;DHT22;7103;54.300;10.180;2024-02-23T03:07:18;6.50;1.00
14057;DHT22;7103;54.300;10.180;2024-02-23T03:09:45;6.50;1.00
14057;DHT22;7103;54.300;10.180;2024-02-23T03:12:13;6.40;1.00
14057;DHT22;7103;54.300;10.180;2024-02-23T03:14:40;6.30;1.00
14057;DHT22;7103;54.300;10.180;2024-02-23T03:17:08;6.30;4.10
14057;DHT22;7103;54.300;10.180;2024-02-23T03:19:36;6.20;12.60
14057;DHT22;7103;54.300;10.180;2024-02-23T03:22:04;6.30;19.30
14057;DHT22;7103;54.300;10.180;2024-02-23T03:24:31;6.10;9.80
14057;DHT22;7103;54.300;10.180;2024-02-23T03:26:58;6.10;9.80
14057;DHT22;7103;54.300;10.180;2024-02-23T03:29:25;6.20;1.20
14057;DHT22;7103;54.300;10.180;2024-02-23T03:31:56;6.30;1.00
14057;DHT22;7103;54.300;10.180;2024-02-23T03:34:23;6.20;1.00
14057;DHT22;7103;54.300;10.180;2024-02-23T03:36:50;6.30;1.00
14057;DHT22;7103;54.300;10.180;2024-02-23T03:39:17;6.30;1.00
14057;DHT22;7103;54.300;10.180;2024-02-23T03:41:44;6.40;1.00
14057;DHT22;7103;54.300;10.180;2024-02-23T03:44:11;6.40;1.00
14057;DHT22;7103;54.300;10.180;2024-02-23T03:46:38;6.30;1.00
14057;DHT22;7103;54.300;10.180;2024-02-23T03:49:05;6.30;1.00
14057;DHT22;7103;54.300;10.180;2024-02-23T03:51:32;6.40;1.00
14057;DHT22;7103;54.300;10.180;2024-02-23T03:54:03;6.30;1.00
14057;DHT22;7103;54.300;10.180;2024-02-23T03:56:30;6.30;1.00
14057;DHT22;7103;54.300;10.180;2024-02-23T03:59:03;6.30;1.00
14057;DHT22;7103;54.300;10.180;2024-02-23T04:01:31;6.40;1.00
14057;DHT22;7103;54.300;10.180;2024-02-23T04:03:58;6.40;1.00
14057;DHT22;7103;54.300;10.180;2024-02-23T04:06:25;6.40;1.00
14057;DHT22;7103;54.300;10.180;2024-02-23T04:08:52;6.40;1.00
14057;DHT22;7103;54.300;10.180;2024-02-23T04:11:18;6.40;1.00
14057;DHT22;7103;54.300;10.180;2024-02-23T04:13:46;6.50;1.00
14057;DHT22;7103;54.300;10.180;2024-02-23T04:16:17;6.40;1.00
14057;DHT22;7103;54.300;10.180;2024-02-23T04:18:43;6.50;1.00
14057;DHT22;7103;54.300;10.180;2024-02-23T04:21:10;6.40;1.00
14057;DHT22;7103;54.300;10.180;2024-02-23T04:23:37;6.40;1.00
14057;DHT22;7103;54.300;10.180;2024-02-23T04:26:04;6.40;1.00
14057;DHT22;7103;54.300;10.180;2024-02-23T04:28:31;6.50;1.00
14057;DHT22;7103;54.300;10.180;2024-02-23T04:31:00;6.50;1.00
14057;DHT22;7103;54.300;10.180;2024-02-23T04:33:27;6.50;1.00
14057;DHT22;7103;54.300;10.180;2024-02-23T04:35:54;6.50;1.00
14057;DHT22;7103;54.300;10.180;2024-02-23T04:38:21;6.50;1.00
14057;DHT22;7103;54.300;10.180;2024-02-23T04:40:48;6.40;1.00
14057;DHT22;7103;54.300;10.180;2024-02-23T04:43:15;6.40;1.00
14057;DHT22;7103;54.300;10.180;2024-02-23T04:45:42;6.40;1.00
14057;DHT22;7103;54.300;10.180;2024-02-23T04:48:08;6.40;1.00
14057;DHT22;7103;54.300;10.180;2024-02-23T04:50:36;6.40;1.00
14057;DHT22;7103;54.300;10.180;2024-02-23T04:53:03;6.40;1.00
14057;DHT22;7103;54.300;10.180;2024-02-23T04:55:30;6.40;1.00
14057;DHT22;7103;54.300;10.180;2024-02-23T04:57:57;6.40;1.00
14057;DHT22;7103;54.300;10.180;2024-02-23T05:00:23;6.40;1.00
14057;DHT22;7103;54.300;10.180;2024-02-23T05:02:55;6.60;1.00
14057;DHT22;7103;54.300;10.180;2024-02-23T05:05:22;6.40;1.00
14057;DHT22;7103;54.300;10.180;2024-02-23T05:07:49;6.50;1.00
14057;DHT22;7103;54.300;10.180;2024-02-23T05:10:16;6.90;1.00
14057;DHT22;7103;54.300;10.180;2024-02-23T05:12:43;6.40;1.00
14057;DHT22;7103;54.300;10.180;2024-02-23T05:15:11;6.60;1.00
14057;DHT22;7103;54.300;10.180;2024-02-23T05:17:38;6.50;1.00
14057;DHT22;7103;54.300;10.180;2024-02-23T05:20:06;6.50;1.00
14057;DHT22;7103;54.300;10.180;2024-02-23T05:22:38;6.40;1.00
14057;DHT22;7103;54.300;10.180;2024-02-23T05:25:05;6.50;1.00
14057;DHT22;7103;54.300;10.180;2024-02-23T05:27:32;6.50;1.00
14057;DHT22;7103;54.300;10.180;2024-02-23T05:29:59;6.60;1.00
14057;DHT22;7103;54.300;10.180;2024-02-23T05:32:26;6.40;1.00
14057;DHT22;7103;54.300;10.180;2024-02-23T05:34:53;6.40;1.00
14057;DHT22;7103;54.300;10.180;2024-02-23T05:39:48;6.40;1.00
14057;DHT22;7103;54.300;10.180;2024-02-23T05:42:15;6.50;1.00
14057;DHT22;7103;54.300;10.180;2024-02-23T05:44:46;6.30;1.00
14057;DHT22;7103;54.300;10.180;2024-02-23T05:47:15;6.50;1.00
14057;DHT22;7103;54.300;10.180;2024-02-23T05:49:42;6.40;1.00
14057;DHT22;7103;54.300;10.180;2024-02-23T05:52:09;6.30;1.00
14057;DHT22;7103;54.300;10.180;2024-02-23T05:54:36;6.30;1.00
14057;DHT22;7103;54.300;10.180;2024-02-23T05:57:03;6.50;1.00
14057;DHT22;7103;54.300;10.180;2024-02-23T05:59:31;6.30;1.00
14057;DHT22;7103;54.300;10.180;2024-02-23T06:01:58;6.50;1.00
14057;DHT22;7103;54.300;10.180;2024-02-23T06:04:25;6.40;1.00
14057;DHT22;7103;54.300;10.180;2024-02-23T06:06:53;6.40;1.00
14057;DHT22;7103;54.300;10.180;2024-02-23T06:09:21;6.40;1.00
14057;DHT22;7103;54.300;10.180;2024-02-23T06:11:48;6.30;1.00
14057;DHT22;7103;54.300;10.180;2024-02-23T06:14:15;6.30;1.00
14057;DHT22;7103;54.300;10.180;2024-02-23T06:16:42;6.30;1.00
14057;DHT22;7103;54.300;10.180;2024-02-23T06:19:10;6.20;1.00
14057;DHT22;7103;54.300;10.180;2024-02-23T06:21:37;6.30;1.00
14057;DHT22;7103;54.300;10.180;2024-02-23T06:24:04;6.30;1.00
14057;DHT22;7103;54.300;10.180;2024-02-23T06:26:31;6.30;1.00
14057;DHT22;7103;54.300;10.180;2024-02-23T06:28:59;6.30;1.00
14057;DHT22;7103;54.300;10.180;2024-02-23T06:31:26;6.30;1.00
14057;DHT22;7103;54.300;10.180;2024-02-23T06:33:53;6.30;1.00
14057;DHT22;7103;54.300;10.180;2024-02-23T06:36:20;6.30;1.00
14057;DHT22;7103;54.300;10.180;2024-02-23T06:38:47;6.40;1.00
14057;DHT22;7103;54.300;10.180;2024-02-23T06:41:14;6.40;1.00
14057;DHT22;7103;54.300;10.180;2024-02-23T06:43:41;6.40;1.00
14057;DHT22;7103;54.300;10.180;2024-02-23T06:46:09;6.50;1.00
14057;DHT22;7103;54.300;10.180;2024-02-23T06:48:36;6.70;1.00
14057;DHT22;7103;54.300;10.180;2024-02-23T06:51:07;6.70;1.00
14057;DHT22;7103;54.300;10.180;2024-02-23T06:53:36;6.60;1.00
14057;DHT22;7103;54.300;10.180;2024-02-23T06:56:03;6.60;1.00
14057;DHT22;7103;54.300;10.180;2024-02-23T06:58:30;6.60;1.00
14057;DHT22;7103;54.300;10.180;2024-02-23T07:00:57;6.70;1.00
14057;DHT22;7103;54.300;10.180;2024-02-23T07:03:24;6.80;1.00
14057;DHT22;7103;54.300;10.180;2024-02-23T07:05:51;6.60;1.00
14057;DHT22;7103;54.300;10.180;2024-02-23T07:08:18;6.60;1.00
14057;DHT22;7103;54.300;10.180;2024-02-23T07:10:45;6.60;1.00
14057;DHT22;7103;54.300;10.180;2024-02-23T07:13:12;6.60;1.00
14057;DHT22;7103;54.300;10.180;2024-02-23T07:15:39;6.70;1.00
14057;DHT22;7103;54.300;10.180;2024-02-23T07:18:06;6.70;1.00
14057;DHT22;7103;54.300;10.180;2024-02-23T07:20:38;6.60;1.00
14057;DHT22;7103;54.300;10.180;2024-02-23T07:23:08;6.60;1.00
14057;DHT22;7103;54.300;10.180;2024-02-23T07:25:35;6.60;1.00
14057;DHT22;7103;54.300;10.180;2024-02-23T07:28:02;6.70;1.00
14057;DHT22;7103;54.300;10.180;2024-02-23T07:30:29;6.60;1.00
14057;DHT22;7103;54.300;10.180;2024-02-23T07:32:56;6.60;1.00
14057;DHT22;7103;54.300;10.180;2024-02-23T07:35:23;6.60;1.00
14057;DHT22;7103;54.300;10.180;2024-02-23T07:37:50;6.70;1.00
14057;DHT22;7103;54.300;10.180;2024-02-23T07:40:17;6.60;1.00
14057;DHT22;7103;54.300;10.180;2024-02-23T07:42:48;6.60;1.00
14057;DHT22;7103;54.300;10.180;2024-02-23T07:45:15;6.50;1.00
14057;DHT22;7103;54.300;10.180;2024-02-23T07:47:42;6.60;1.00
14057;DHT22;7103;54.300;10.180;2024-02-23T07:50:09;6.70;1.00
14057;DHT22;7103;54.300;10.180;2024-02-23T07:52:36;6.60;1.00
14057;DHT22;7103;54.300;10.180;2024-02-23T07:55:03;6.70;1.00
14057;DHT22;7103;54.300;10.180;2024-02-23T07:57:32;6.60;1.00
14057;DHT22;7103;54.300;10.180;2024-02-23T07:59:59;6.80;1.00
14057;DHT22;7103;54.300;10.180;2024-02-23T08:02:26;6.70;1.00
14057;DHT22;7103;54.300;10.180;2024-02-23T08:04:53;6.80;1.00
14057;DHT22;7103;54.300;10.180;2024-02-23T08:07:21;6.70;1.00
14057;DHT22;7103;54.300;10.180;2024-02-23T08:09:49;6.70;1.00
14057;DHT22;7103;54.300;10.180;2024-02-23T08:12:16;6.70;1.00
14057;DHT22;7103;54.300;10.180;2024-02-23T08:14:43;6.60;1.00
14057;DHT22;7103;54.300;10.180;2024-02-23T08:17:12;6.70;1.00
14057;DHT22;7103;54.300;10.180;2024-02-23T08:19:40;6.70;1.00
14057;DHT22;7103;54.300;10.180;2024-02-23T08:22:07;6.70;1.00
14057;DHT22;7103;54.300;10.180;2024-02-23T08:24:34;6.80;1.00
14057;DHT22;7103;54.300;10.180;2024-02-23T08:27:01;6.90;1.00
14057;DHT22;7103;54.300;10.180;2024-02-23T08:29:29;6.90;1.00
14057;DHT22;7103;54.300;10.180;2024-02-23T08:31:56;7.00;1.00
14057;DHT22;7103;54.300;10.180;2024-02-23T08:34:23;6.80;1.00
14057;DHT22;7103;54.300;10.180;2024-02-23T08:36:51;6.80;1.00
14057;DHT22;7103;54.300;10.180;2024-02-23T08:39:18;7.00;1.00
14057;DHT22;7103;54.300;10.180;2024-02-23T08:41:45;6.90;1.00
14057;DHT22;7103;54.300;10.180;2024-02-23T08:44:12;6.90;1.00
14057;DHT22;7103;54.300;10.180;2024-02-23T08:46:39;7.10;1.00
14057;DHT22;7103;54.300;10.180;2024-02-23T08:49:06;7.10;1.00
14057;DHT22;7103;54.300;10.180;2024-02-23T08:51:33;7.20;1.00
14057;DHT22;7103;54.300;10.180;2024-02-23T08:54:00;7.20;1.00
14057;DHT22;7103;54.300;10.180;2024-02-23T08:56:31;7.20;1.00
14057;DHT22;7103;54.300;10.180;2024-02-23T08:58:58;7.10;1.00
14057;DHT22;7103;54.300;10.180;2024-02-23T09:01:25;7.10;1.00
14057;DHT22;7103;54.300;10.180;2024-02-23T09:03:52;7.20;1.00
14057;DHT22;7103;54.300;10.180;2024-02-23T09:06:19;7.30;1.00
14057;DHT22;7103;54.300;10.180;2024-02-23T09:08:46;7.30;1.00
14057;DHT22;7103;54.300;10.180;2024-02-23T09:11:13;7.40;1.00
14057;DHT22;7103;54.300;10.180;2024-02-23T09:13:42;7.90;1.00
14057;DHT22;7103;54.300;10.180;2024-02-23T09:16:09;8.30;1.00
14057;DHT22;7103;54.300;10.180;2024-02-23T09:18:36;8.60;1.00
14057;DHT22;7103;54.300;10.180;2024-02-23T09:21:03;8.90;1.00
14057;DHT22;7103;54.300;10.180;2024-02-23T09:23:30;8.80;1.00
14057;DHT22;7103;54.300;10.180;2024-02-23T09:25:57;8.70;1.00
14057;DHT22;7103;54.300;10.180;2024-02-23T09:28:24;8.90;1.00
14057;DHT22;7103;54.300;10.180;2024-02-23T09:30:51;9.10;1.00
14057;DHT22;7103;54.300;10.180;2024-02-23T09:33:19;9.50;1.00
14057;DHT22;7103;54.300;10.180;2024-02-23T09:35:46;9.70;1.00
14057;DHT22;7103;54.300;10.180;2024-02-23T09:38:13;9.90;1.00
14057;DHT22;7103;54.300;10.180;2024-02-23T09:40:40;9.80;1.00
14057;DHT22;7103;54.300;10.180;2024-02-23T09:43:08;9.80;1.00
14057;DHT22;7103;54.300;10.180;2024-02-23T09:45:35;9.70;1.00
14057;DHT22;7103;54.300;10.180;2024-02-23T09:48:02;9.90;1.00
14057;DHT22;7103;54.300;10.180;2024-02-23T09:50:30;10.20;1.00
14057;DHT22;7103;54.300;10.180;2024-02-23T09:52:58;10.40;1.00
14057;DHT22;7103;54.300;10.180;2024-02-23T09:55:25;10.40;1.00
14057;DHT22;7103;54.300;10.180;2024-02-23T09:57:55;10.40;1.00
14057;DHT22;7103;54.300;10.180;2024-02-23T10:00:24;10.50;1.00
14057;DHT22;7103;54.300;10.180;2024-02-23T10:02:53;10.60;1.00
14057;DHT22;7103;54.300;10.180;2024-02-23T10:05:23;10.50;1.00
14057;DHT22;7103;54.300;10.180;2024-02-23T10:08:01;10.40;1.00
14057;DHT22;7103;54.300;10.180;2024-02-23T10:10:32;10.10;1.00
14057;DHT22;7103;54.300;10.180;2024-02-23T10:13:02;10.10;1.00
14057;DHT22;7103;54.300;10.180;2024-02-23T10:15:31;10.30;1.00
14057;DHT22;7103;54.300;10.180;2024-02-23T10:17:58;10.70;1.00
14057;DHT22;7103;54.300;10.180;2024-02-23T10:20:25;10.70;1.00
14057;DHT22;7103;54.300;10.180;2024-02-23T10:22:52;10.10;1.00
14057;DHT22;7103;54.300;10.180;2024-02-23T10:25:21;9.80;1.00
14057;DHT22;7103;54.300;10.180;2024-02-23T10:27:48;9.40;1.00
14057;DHT22;7103;54.300;10.180;2024-02-23T10:30:15;9.30;1.00
14057;DHT22;7103;54.300;10.180;2024-02-23T10:32:42;9.40;1.00
14057;DHT22;7103;54.300;10.180;2024-02-23T10:35:16;9.40;1.00
14057;DHT22;7103;54.300;10.180;2024-02-23T10:37:44;9.20;1.00
14057;DHT22;7103;54.300;10.180;2024-02-23T10:40:16;9.20;1.00
14057;DHT22;7103;54.300;10.180;2024-02-23T10:42:44;9.10;1.00
14057;DHT22;7103;54.300;10.180;2024-02-23T10:45:21;9.10;1.00
14057;DHT22;7103;54.300;10.180;2024-02-23T10:47:49;9.00;1.00
14057;DHT22;7103;54.300;10.180;2024-02-23T10:50:17;9.10;1.00
14057;DHT22;7103;54.300;10.180;2024-02-23T10:52:46;8.80;1.00
14057;DHT22;7103;54.300;10.180;2024-02-23T10:55:14;8.80;1.00
14057;DHT22;7103;54.300;10.180;2024-02-23T10:57:41;8.90;1.00
14057;DHT22;7103;54.300;10.180;2024-02-23T11:00:09;8.80;1.00
14057;DHT22;7103;54.300;10.180;2024-02-23T11:02:45;9.10;1.00
14057;DHT22;7103;54.300;10.180;2024-02-23T11:05:15;9.10;1.00
14057;DHT22;7103;54.300;10.180;2024-02-23T11:07:42;9.20;1.00
14057;DHT22;7103;54.300;10.180;2024-02-23T11:10:13;9.10;1.00
14057;DHT22;7103;54.300;10.180;2024-02-23T11:12:40;9.00;1.00
14057;DHT22;7103;54.300;10.180;2024-02-23T11:15:07;9.10;1.00
14057;DHT22;7103;54.300;10.180;2024-02-23T11:17:36;9.10;1.00
14057;DHT22;7103;54.300;10.180;2024-02-23T11:20:05;9.00;1.00
14057;DHT22;7103;54.300;10.180;2024-02-23T11:22:34;9.30;1.00
14057;DHT22;7103;54.300;10.180;2024-02-23T11:25:06;9.70;1.00
14057;DHT22;7103;54.300;10.180;2024-02-23T11:27:36;10.30;1.00
14057;DHT22;7103;54.300;10.180;2024-02-23T11:30:05;10.50;1.00
14057;DHT22;7103;54.300;10.180;2024-02-23T11:32:40;10.50;1.00
14057;DHT22;7103;54.300;10.180;2024-02-23T11:35:11;10.60;1.00
14057;DHT22;7103;54.300;10.180;2024-02-23T11:37:58;10.70;1.00
14057;DHT22;7103;54.300;10.180;2024-02-23T11:40:28;10.60;1.00
14057;DHT22;7103;54.300;10.180;2024-02-23T11:42:56;10.40;1.00
14057;DHT22;7103;54.300;10.180;2024-02-23T11:45:28;10.00;1.00
14057;DHT22;7103;54.300;10.180;2024-02-23T11:47:55;9.80;1.00
14057;DHT22;7103;54.300;10.180;2024-02-23T11:50:23;9.70;1.00
14057;DHT22;7103;54.300;10.180;2024-02-23T11:52:50;9.40;1.00
14057;DHT22;7103;54.300;10.180;2024-02-23T11:55:21;9.50;1.00
14057;DHT22;7103;54.300;10.180;2024-02-23T11:57:51;9.60;1.00
14057;DHT22;7103;54.300;10.180;2024-02-23T12:00:31;9.90;1.00
14057;DHT22;7103;54.300;10.180;2024-02-23T12:02:58;9.90;1.00
14057;DHT22;7103;54.300;10.180;2024-02-23T12:05:26;9.90;1.00
14057;DHT22;7103;54.300;10.180;2024-02-23T12:07:54;9.80;1.00
14057;DHT22;7103;54.300;10.180;2024-02-23T12:10:21;9.80;1.00
14057;DHT22;7103;54.300;10.180;2024-02-23T12:12:49;9.50;1.00
14057;DHT22;7103;54.300;10.180;2024-02-23T12:15:16;9.50;1.00
14057;DHT22;7103;54.300;10.180;2024-02-23T12:17:49;9.50;1.00
14057;DHT22;7103;54.300;10.180;2024-02-23T12:20:17;9.50;1.00
14057;DHT22;7103;54.300;10.180;2024-02-23T12:22:45;9.60;1.00
14057;DHT22;7103;54.300;10.180;2024-02-23T12:25:12;9.60;1.00
14057;DHT22;7103;54.300;10.180;2024-02-23T12:27:40;9.80;1.00
14057;DHT22;7103;54.300;10.180;2024-02-23T12:30:16;10.00;1.00
14057;DHT22;7103;54.300;10.180;2024-02-23T12:32:44;10.10;1.00
14057;DHT22;7103;54.300;10.180;2024-02-23T12:35:12;10.30;1.00
14057;DHT22;7103;54.300;10.180;2024-02-23T12:37:40;10.30;1.00
14057;DHT22;7103;54.300;10.180;2024-02-23T12:40:11;10.10;1.00
14057;DHT22;7103;54.300;10.180;2024-02-23T12:42:39;9.90;1.00
14057;DHT22;7103;54.300;10.180;2024-02-23T12:45:06;9.80;1.00
14057;DHT22;7103;54.300;10.180;2024-02-23T12:47:33;9.80;1.00
14057;DHT22;7103;54.300;10.180;2024-02-23T12:50:01;9.70;1.00
14057;DHT22;7103;54.300;10.180;2024-02-23T12:52:28;9.50;1.00
14057;DHT22;7103;54.300;10.180;2024-02-23T12:54:55;9.60;1.00
14057;DHT22;7103;54.300;10.180;2024-02-23T12:57:22;9.40;1.00
14057;DHT22;7103;54.300;10.180;2024-02-23T12:59:49;9.50;1.00
14057;DHT22;7103;54.300;10.180;2024-02-23T13:02:16;9.50;1.00
14057;DHT22;7103;54.300;10.180;2024-02-23T13:04:43;9.40;1.00
14057;DHT22;7103;54.300;10.180;2024-02-23T13:07:15;9.20;1.00
14057;DHT22;7103;54.300;10.180;2024-02-23T13:09:44;9.10;1.00
14057;DHT22;7103;54.300;10.180;2024-02-23T13:12:11;9.10;1.00
14057;DHT22;7103;54.300;10.180;2024-02-23T13:14:38;9.30;1.00
14057;DHT22;7103;54.300;10.180;2024-02-23T13:17:05;9.30;1.00
14057;DHT22;7103;54.300;10.180;2024-02-23T13:19:31;9.30;1.00
14057;DHT22;7103;54.300;10.180;2024-02-23T13:21:59;9.40;1.00
14057;DHT22;7103;54.300;10.180;2024-02-23T13:24:27;9.40;1.00
14057;DHT22;7103;54.300;10.180;2024-02-23T13:26:54;9.40;1.00
14057;DHT22;7103;54.300;10.180;2024-02-23T13:29:21;9.40;1.00
14057;DHT22;7103;54.300;10.180;2024-02-23T13:31:48;9.30;1.00
14057;DHT22;7103;54.300;10.180;2024-02-23T13:34:15;9.30;1.00
14057;DHT22;7103;54.300;10.180;2024-02-23T13:36:44;9.30;1.00
14057;DHT22;7103;54.300;10.180;2024-02-23T13:39:11;9.40;1.00
14057;DHT22;7103;54.300;10.180;2024-02-23T13:41:38;9.40;1.00
14057;DHT22;7103;54.300;10.180;2024-02-23T13:44:05;9.40;1.00
14057;DHT22;7103;54.300;10.180;2024-02-23T13:46:35;9.30;1.00
14057;DHT22;7103;54.300;10.180;2024-02-23T13:49:05;9.30;1.00
14057;DHT22;7103;54.300;10.180;2024-02-23T13:51:34;9.50;1.00
14057;DHT22;7103;54.300;10.180;2024-02-23T13:54:01;9.30;1.00
14057;DHT22;7103;54.300;10.180;2024-02-23T13:56:27;9.60;1.00
14057;DHT22;7103;54.300;10.180;2024-02-23T13:58:54;9.30;1.00
14057;DHT22;7103;54.300;10.180;2024-02-23T14:01:21;9.30;1.00
14057;DHT22;7103;54.300;10.180;2024-02-23T14:03:48;9.30;1.00
14057;DHT22;7103;54.300;10.180;2024-02-23T14:06:15;9.30;1.00
14057;DHT22;7103;54.300;10.180;2024-02-23T14:08:42;9.20;1.00
14057;DHT22;7103;54.300;10.180;2024-02-23T14:11:11;9.40;1.00
14057;DHT22;7103;54.300;10.180;2024-02-23T14:13:38;9.40;1.00
14057;DHT22;7103;54.300;10.180;2024-02-23T14:16:05;9.30;1.00
14057;DHT22;7103;54.300;10.180;2024-02-23T14:18:32;9.20;1.00
14057;DHT22;7103;54.300;10.180;2024-02-23T14:21:04;9.20;1.00
14057;DHT22;7103;54.300;10.180;2024-02-23T14:23:31;9.20;1.00
14057;DHT22;7103;54.300;10.180;2024-02-23T14:25:58;9.10;1.00
14057;DHT22;7103;54.300;10.180;2024-02-23T14:28:25;9.10;1.00
14057;DHT22;7103;54.300;10.180;2024-02-23T14:30:52;9.20;1.00
14057;DHT22;7103;54.300;10.180;2024-02-23T14:33:20;9.20;1.00
14057;DHT22;7103;54.300;10.180;2024-02-23T14:35:47;9.10;1.00
14057;DHT22;7103;54.300;10.180;2024-02-23T14:38:16;9.20;1.00
14057;DHT22;7103;54.300;10.180;2024-02-23T14:40:43;9.10;1.00
14057;DHT22;7103;54.300;10.180;2024-02-23T14:43:10;9.10;1.00
14057;DHT22;7103;54.300;10.180;2024-02-23T14:45:37;9.20;1.00
14057;DHT22;7103;54.300;10.180;2024-02-23T14:48:05;9.20;1.00
14057;DHT22;7103;54.300;10.180;2024-02-23T14:50:32;9.20;1.00
14057;DHT22;7103;54.300;10.180;2024-02-23T14:52:59;9.30;1.00
14057;DHT22;7103;54.300;10.180;2024-02-23T14:55:27;9.30;1.00
14057;DHT22;7103;54.300;10.180;2024-02-23T14:57:54;9.30;1.00
14057;DHT22;7103;54.300;10.180;2024-02-23T15:00:22;9.20;1.00
14057;DHT22;7103;54.300;10.180;2024-02-23T15:02:49;9.10;1.00
14057;DHT22;7103;54.300;10.180;2024-02-23T15:05:16;9.00;1.00
14057;DHT22;7103;54.300;10.180;2024-02-23T15:07:44;8.90;1.00
14057;DHT22;7103;54.300;10.180;2024-02-23T15:10:11;8.90;1.00
14057;DHT22;7103;54.300;10.180;2024-02-23T15:12:38;8.90;1.00
14057;DHT22;7103;54.300;10.180;2024-02-23T15:15:05;8.80;1.00
14057;DHT22;7103;54.300;10.180;2024-02-23T15:17:34;8.80;1.00
14057;DHT22;7103;54.300;10.180;2024-02-23T15:20:01;8.90;1.00
14057;DHT22;7103;54.300;10.180;2024-02-23T15:22:29;8.90;1.00
14057;DHT22;7103;54.300;10.180;2024-02-23T15:24:56;8.90;1.00
14057;DHT22;7103;54.300;10.180;2024-02-23T15:27:26;9.00;1.00
14057;DHT22;7103;54.300;10.180;2024-02-23T15:29:54;9.00;1.00
14057;DHT22;7103;54.300;10.180;2024-02-23T15:32:20;8.80;1.00
14057;DHT22;7103;54.300;10.180;2024-02-23T15:34:48;8.80;1.00
14057;DHT22;7103;54.300;10.180;2024-02-23T15:37:15;9.00;1.00
14057;DHT22;7103;54.300;10.180;2024-02-23T15:39:42;8.80;1.00
14057;DHT22;7103;54.300;10.180;2024-02-23T15:42:09;8.90;1.00
14057;DHT22;7103;54.300;10.180;2024-02-23T15:44:36;8.80;1.00
14057;DHT22;7103;54.300;10.180;2024-02-23T15:47:03;9.00;1.00
14057;DHT22;7103;54.300;10.180;2024-02-23T15:49:30;8.80;1.00
14057;DHT22;7103;54.300;10.180;2024-02-23T15:52:17;8.90;1.00
14057;DHT22;7103;54.300;10.180;2024-02-23T15:54:44;8.80;1.00
14057;DHT22;7103;54.300;10.180;2024-02-23T15:57:11;8.80;1.00
14057;DHT22;7103;54.300;10.180;2024-02-23T15:59:38;8.80;1.00
14057;DHT22;7103;54.300;10.180;2024-02-23T16:02:06;9.00;1.00
14057;DHT22;7103;54.300;10.180;2024-02-23T16:04:34;9.00;1.00